sensor_id;sensor_type;location;lat;lon;timestamp;temperature;humidity
8422;DHT22;4248;48.196;10.924;2022-12-17T00:01:02;-1.40;64.00
8422;DHT22;4248;48.196;10.924;2022-12-17T00:03:46;-1.30;66.30
8422;DHT22;4248;48.196;10.924;2022-12-17T00:06:30;-1.30;64.80
8422;DHT22;4248;48.196;10.924;2022-12-17T00:09:14;-1.30;65.00
8422;DHT22;4248;48.196;10.924;2022-12-17T00:11:59;-1.30;64.10
8422;DHT22;4248;48.196;10.924;2022-12-17T00:14:43;-1.30;65.30
8422;DHT22;4248;48.196;10.924;2022-12-17T00:17:27;-1.20;65.30
8422;DHT22;4248;48.196;10.924;2022-12-17T00:20:11;-1.40;65.20
8422;DHT22;4248;48.196;10.924;2022-12-17T00:23:03;-1.40;64.20
8422;DHT22;4248;48.196;10.924;2022-12-17T00:25:52;-1.40;65.40
8422;DHT22;4248;48.196;10.924;2022-12-17T00:28:36;-1.50;65.50
8422;DHT22;4248;48.196;10.924;2022-12-17T00:31:21;-1.50;64.40
8422;DHT22;4248;48.196;10.924;2022-12-17T00:34:06;-1.40;65.50
8422;DHT22;4248;48.196;10.924;2022-12-17T00:36:50;-1.40;65.20
8422;DHT22;4248;48.196;10.924;2022-12-17T00:39:34;-1.40;65.40
8422;DHT22;4248;48.196;10.924;2022-12-17T00:42:18;-1.50;64.20
8422;DHT22;4248;48.196;10.924;2022-12-17T00:45:03;-1.50;65.40
8422;DHT22;4248;48.196;10.924;2022-12-17T00:47:47;-1.50;65.30
8422;DHT22;4248;48.196;10.924;2022-12-17T00:50:32;-1.40;64.20
8422;DHT22;4248;48.196;10.924;2022-12-17T00:53:16;-1.40;65.20
8422;DHT22;4248;48.196;10.924;2022-12-17T00:56:00;-1.40;65.20
8422;DHT22;4248;48.196;10.924;2022-12-17T00:58:44;-1.40;65.10
8422;DHT22;4248;48.196;10.924;2022-12-17T01:01:28;-1.40;64.00
8422;DHT22;4248;48.196;10.924;2022-12-17T01:04:12;-1.40;65.00
8422;DHT22;4248;48.196;10.924;2022-12-17T01:06:57;-1.50;65.10
8422;DHT22;4248;48.196;10.924;2022-12-17T01:09:41;-1.50;65.40
8422;DHT22;4248;48.196;10.924;2022-12-17T01:12:25;-1.70;64.70
8422;DHT22;4248;48.196;10.924;2022-12-17T01:15:09;-1.70;66.00
8422;DHT22;4248;48.196;10.924;2022-12-17T01:17:53;-1.60;65.70
8422;DHT22;4248;48.196;10.924;2022-12-17T01:20:37;-1.50;64.10
8422;DHT22;4248;48.196;10.924;2022-12-17T01:23:23;-1.50;65.10
8422;DHT22;4248;48.196;10.924;2022-12-17T01:26:07;-1.50;64.70
8422;DHT22;4248;48.196;10.924;2022-12-17T01:28:51;-1.40;64.80
8422;DHT22;4248;48.196;10.924;2022-12-17T01:31:35;-1.40;63.50
8422;DHT22;4248;48.196;10.924;2022-12-17T01:34:19;-1.40;64.60
8422;DHT22;4248;48.196;10.924;2022-12-17T01:37:04;-1.30;64.60
8422;DHT22;4248;48.196;10.924;2022-12-17T01:39:48;-1.30;64.50
8422;DHT22;4248;48.196;10.924;2022-12-17T01:42:44;-1.30;63.30
8422;DHT22;4248;48.196;10.924;2022-12-17T01:45:43;-1.30;64.20
8422;DHT22;4248;48.196;10.924;2022-12-17T01:48:35;-1.30;64.20
8422;DHT22;4248;48.196;10.924;2022-12-17T01:51:20;-1.30;63.50
8422;DHT22;4248;48.196;10.924;2022-12-17T01:54:05;-1.30;64.50
8422;DHT22;4248;48.196;10.924;2022-12-17T01:56:50;-1.30;64.50
8422;DHT22;4248;48.196;10.924;2022-12-17T02:02:36;-1.30;63.20
8422;DHT22;4248;48.196;10.924;2022-12-17T02:05:24;-1.30;64.40
8422;DHT22;4248;48.196;10.924;2022-12-17T02:14:39;-1.40;64.90
8422;DHT22;4248;48.196;10.924;2022-12-17T02:17:28;-1.60;64.90
8422;DHT22;4248;48.196;10.924;2022-12-17T02:20:29;-1.70;65.50
8422;DHT22;4248;48.196;10.924;2022-12-17T02:26:41;-2.10;66.20
8422;DHT22;4248;48.196;10.924;2022-12-17T02:29:28;-2.20;66.30
8422;DHT22;4248;48.196;10.924;2022-12-17T02:32:28;-2.50;66.00
8422;DHT22;4248;48.196;10.924;2022-12-17T02:35:17;-2.70;67.00
8422;DHT22;4248;48.196;10.924;2022-12-17T02:38:01;-2.90;66.90
8422;DHT22;4248;48.196;10.924;2022-12-17T02:40:46;-3.20;66.10
8422;DHT22;4248;48.196;10.924;2022-12-17T02:43:32;-3.20;67.20
8422;DHT22;4248;48.196;10.924;2022-12-17T02:46:17;-3.30;67.50
8422;DHT22;4248;48.196;10.924;2022-12-17T02:49:03;-3.50;67.70
8422;DHT22;4248;48.196;10.924;2022-12-17T02:51:47;-3.60;66.70
8422;DHT22;4248;48.196;10.924;2022-12-17T02:54:33;-3.60;67.70
8422;DHT22;4248;48.196;10.924;2022-12-17T02:57:18;-3.70;67.60
8422;DHT22;4248;48.196;10.924;2022-12-17T03:00:04;-3.80;67.50
8422;DHT22;4248;48.196;10.924;2022-12-17T03:02:49;-3.80;66.50
8422;DHT22;4248;48.196;10.924;2022-12-17T03:05:33;-3.90;67.50
8422;DHT22;4248;48.196;10.924;2022-12-17T03:08:17;-4.10;67.50
8422;DHT22;4248;48.196;10.924;2022-12-17T03:11:01;-4.20;67.60
8422;DHT22;4248;48.196;10.924;2022-12-17T03:13:45;-4.40;67.80
8422;DHT22;4248;48.196;10.924;2022-12-17T03:16:29;-4.50;67.80
8422;DHT22;4248;48.196;10.924;2022-12-17T03:21:58;-4.60;66.60
8422;DHT22;4248;48.196;10.924;2022-12-17T03:24:42;-4.60;67.60
8422;DHT22;4248;48.196;10.924;2022-12-17T03:27:26;-4.70;67.50
8422;DHT22;4248;48.196;10.924;2022-12-17T03:30:11;-4.90;67.60
8422;DHT22;4248;48.196;10.924;2022-12-17T03:32:55;-5.00;66.50
8422;DHT22;4248;48.196;10.924;2022-12-17T03:35:39;-5.10;67.60
8422;DHT22;4248;48.196;10.924;2022-12-17T03:38:23;-5.30;67.60
8422;DHT22;4248;48.196;10.924;2022-12-17T03:41:07;-5.50;66.40
8422;DHT22;4248;48.196;10.924;2022-12-17T03:43:51;-5.50;67.50
8422;DHT22;4248;48.196;10.924;2022-12-17T03:46:35;-5.50;67.50
8422;DHT22;4248;48.196;10.924;2022-12-17T03:49:19;-5.60;67.50
8422;DHT22;4248;48.196;10.924;2022-12-17T03:52:03;-5.70;66.30
8422;DHT22;4248;48.196;10.924;2022-12-17T03:54:47;-5.80;67.20
8422;DHT22;4248;48.196;10.924;2022-12-17T03:57:31;-5.80;67.10
8422;DHT22;4248;48.196;10.924;2022-12-17T04:00:15;-5.90;67.00
8422;DHT22;4248;48.196;10.924;2022-12-17T04:02:59;-6.00;65.80
8422;DHT22;4248;48.196;10.924;2022-12-17T04:05:44;-6.00;66.70
8422;DHT22;4248;48.196;10.924;2022-12-17T04:08:28;-6.00;65.60
8422;DHT22;4248;48.196;10.924;2022-12-17T04:11:12;-6.10;65.40
8422;DHT22;4248;48.196;10.924;2022-12-17T04:13:56;-6.10;66.40
8422;DHT22;4248;48.196;10.924;2022-12-17T04:16:40;-6.10;66.40
8422;DHT22;4248;48.196;10.924;2022-12-17T04:19:24;-6.20;66.30
8422;DHT22;4248;48.196;10.924;2022-12-17T04:22:08;-6.30;65.20
8422;DHT22;4248;48.196;10.924;2022-12-17T04:24:52;-6.30;66.30
8422;DHT22;4248;48.196;10.924;2022-12-17T04:27:36;-6.30;66.30
8422;DHT22;4248;48.196;10.924;2022-12-17T04:30:20;-6.40;66.30
8422;DHT22;4248;48.196;10.924;2022-12-17T04:33:04;-6.40;65.00
8422;DHT22;4248;48.196;10.924;2022-12-17T04:35:48;-6.40;66.00
8422;DHT22;4248;48.196;10.924;2022-12-17T04:38:33;-6.40;65.90
8422;DHT22;4248;48.196;10.924;2022-12-17T04:41:17;-6.40;64.90
8422;DHT22;4248;48.196;10.924;2022-12-17T04:44:01;-6.40;65.80
8422;DHT22;4248;48.196;10.924;2022-12-17T04:46:45;-6.40;65.90
8422;DHT22;4248;48.196;10.924;2022-12-17T04:49:29;-6.50;65.80
8422;DHT22;4248;48.196;10.924;2022-12-17T04:52:13;-6.60;65.00
8422;DHT22;4248;48.196;10.924;2022-12-17T04:54:58;-6.80;65.90
8422;DHT22;4248;48.196;10.924;2022-12-17T04:57:42;-7.30;66.30
8422;DHT22;4248;48.196;10.924;2022-12-17T05:00:26;-7.50;66.50
8422;DHT22;4248;48.196;10.924;2022-12-17T05:03:12;-7.80;65.50
8422;DHT22;4248;48.196;10.924;2022-12-17T05:05:57;-7.60;66.90
8422;DHT22;4248;48.196;10.924;2022-12-17T05:08:43;-8.10;66.70
8422;DHT22;4248;48.196;10.924;2022-12-17T05:11:27;-8.10;65.60
8422;DHT22;4248;48.196;10.924;2022-12-17T05:14:11;-8.20;66.40
8422;DHT22;4248;48.196;10.924;2022-12-17T05:16:55;-8.30;66.40
8422;DHT22;4248;48.196;10.924;2022-12-17T05:19:39;-8.30;66.40
8422;DHT22;4248;48.196;10.924;2022-12-17T05:22:24;-7.40;65.90
8422;DHT22;4248;48.196;10.924;2022-12-17T05:25:08;-6.60;67.30
8422;DHT22;4248;48.196;10.924;2022-12-17T05:27:52;-5.80;64.60
8422;DHT22;4248;48.196;10.924;2022-12-17T05:30:36;-5.30;61.70
8422;DHT22;4248;48.196;10.924;2022-12-17T05:33:20;-5.40;62.60
8422;DHT22;4248;48.196;10.924;2022-12-17T05:36:05;-6.00;63.10
8422;DHT22;4248;48.196;10.924;2022-12-17T05:38:49;-6.50;63.90
8422;DHT22;4248;48.196;10.924;2022-12-17T05:41:33;-6.80;64.60
8422;DHT22;4248;48.196;10.924;2022-12-17T05:44:17;-7.00;65.50
8422;DHT22;4248;48.196;10.924;2022-12-17T05:47:02;-7.10;66.00
8422;DHT22;4248;48.196;10.924;2022-12-17T05:49:46;-7.20;66.20
8422;DHT22;4248;48.196;10.924;2022-12-17T05:52:30;-7.30;65.10
8422;DHT22;4248;48.196;10.924;2022-12-17T05:55:14;-7.30;66.30
8422;DHT22;4248;48.196;10.924;2022-12-17T05:58:06;-7.30;66.20
8422;DHT22;4248;48.196;10.924;2022-12-17T06:00:59;-7.30;65.10
8422;DHT22;4248;48.196;10.924;2022-12-17T06:03:43;-7.30;66.10
8422;DHT22;4248;48.196;10.924;2022-12-17T06:06:28;-7.20;66.00
8422;DHT22;4248;48.196;10.924;2022-12-17T06:09:12;-7.40;65.90
8422;DHT22;4248;48.196;10.924;2022-12-17T06:11:56;-7.40;64.90
8422;DHT22;4248;48.196;10.924;2022-12-17T06:14:40;-7.50;66.00
8422;DHT22;4248;48.196;10.924;2022-12-17T06:17:24;-7.50;66.00
8422;DHT22;4248;48.196;10.924;2022-12-17T06:20:08;-7.60;65.90
8422;DHT22;4248;48.196;10.924;2022-12-17T06:23:05;-7.80;67.10
8422;DHT22;4248;48.196;10.924;2022-12-17T06:25:54;-8.10;65.80
8422;DHT22;4248;48.196;10.924;2022-12-17T06:28:41;-8.10;66.20
8422;DHT22;4248;48.196;10.924;2022-12-17T06:31:25;-8.20;65.00
8422;DHT22;4248;48.196;10.924;2022-12-17T06:34:09;-8.20;65.90
8422;DHT22;4248;48.196;10.924;2022-12-17T06:36:53;-8.10;65.80
8422;DHT22;4248;48.196;10.924;2022-12-17T06:39:37;-7.80;65.70
8422;DHT22;4248;48.196;10.924;2022-12-17T06:42:21;-8.30;64.10
8422;DHT22;4248;48.196;10.924;2022-12-17T06:45:05;-8.50;65.20
8422;DHT22;4248;48.196;10.924;2022-12-17T06:47:50;-8.80;65.20
8422;DHT22;4248;48.196;10.924;2022-12-17T06:53:29;-9.20;64.30
8422;DHT22;4248;48.196;10.924;2022-12-17T06:56:13;-9.40;65.30
8422;DHT22;4248;48.196;10.924;2022-12-17T06:58:57;-9.50;65.20
8422;DHT22;4248;48.196;10.924;2022-12-17T07:01:41;-9.60;64.00
8422;DHT22;4248;48.196;10.924;2022-12-17T07:04:26;-9.70;65.00
8422;DHT22;4248;48.196;10.924;2022-12-17T07:07:10;-9.70;66.20
8422;DHT22;4248;48.196;10.924;2022-12-17T07:09:54;-9.20;66.20
8422;DHT22;4248;48.196;10.924;2022-12-17T07:12:38;-9.50;63.30
8422;DHT22;4248;48.196;10.924;2022-12-17T07:15:22;-9.60;64.40
8422;DHT22;4248;48.196;10.924;2022-12-17T07:18:07;-9.80;64.50
8422;DHT22;4248;48.196;10.924;2022-12-17T07:20:52;-10.00;63.50
8422;DHT22;4248;48.196;10.924;2022-12-17T07:23:37;-10.10;64.40
8422;DHT22;4248;48.196;10.924;2022-12-17T07:26:21;-10.10;64.50
8422;DHT22;4248;48.196;10.924;2022-12-17T07:29:05;-9.80;64.90
8422;DHT22;4248;48.196;10.924;2022-12-17T07:31:49;-9.60;62.70
8422;DHT22;4248;48.196;10.924;2022-12-17T07:34:33;-9.60;63.60
8422;DHT22;4248;48.196;10.924;2022-12-17T07:37:17;-9.80;63.70
8422;DHT22;4248;48.196;10.924;2022-12-17T07:40:02;-9.80;63.70
8422;DHT22;4248;48.196;10.924;2022-12-17T07:42:47;-9.80;62.40
8422;DHT22;4248;48.196;10.924;2022-12-17T07:45:31;-9.90;63.40
8422;DHT22;4248;48.196;10.924;2022-12-17T07:48:15;-9.80;63.40
8422;DHT22;4248;48.196;10.924;2022-12-17T07:50:59;-9.80;62.20
8422;DHT22;4248;48.196;10.924;2022-12-17T07:54:03;-9.80;63.10
8422;DHT22;4248;48.196;10.924;2022-12-17T07:56:47;-9.80;62.90
8422;DHT22;4248;48.196;10.924;2022-12-17T07:59:31;-9.80;62.80
8422;DHT22;4248;48.196;10.924;2022-12-17T08:02:16;-9.70;61.70
8422;DHT22;4248;48.196;10.924;2022-12-17T08:05:00;-9.70;62.50
8422;DHT22;4248;48.196;10.924;2022-12-17T08:07:44;-9.60;62.40
8422;DHT22;4248;48.196;10.924;2022-12-17T08:10:28;-9.60;62.20
8422;DHT22;4248;48.196;10.924;2022-12-17T08:13:12;-9.60;60.90
8422;DHT22;4248;48.196;10.924;2022-12-17T08:15:57;-9.60;61.90
8422;DHT22;4248;48.196;10.924;2022-12-17T08:18:41;-9.40;61.80
8422;DHT22;4248;48.196;10.924;2022-12-17T08:21:25;-9.20;60.40
8422;DHT22;4248;48.196;10.924;2022-12-17T08:24:09;-9.10;61.60
8422;DHT22;4248;48.196;10.924;2022-12-17T08:26:53;-8.80;61.70
8422;DHT22;4248;48.196;10.924;2022-12-17T08:29:37;-8.70;61.80
8422;DHT22;4248;48.196;10.924;2022-12-17T08:32:21;-8.40;60.20
8422;DHT22;4248;48.196;10.924;2022-12-17T08:35:06;-8.40;61.10
8422;DHT22;4248;48.196;10.924;2022-12-17T08:37:50;-8.20;60.80
8422;DHT22;4248;48.196;10.924;2022-12-17T08:40:34;-8.00;60.70
8422;DHT22;4248;48.196;10.924;2022-12-17T08:43:18;-7.90;59.70
8422;DHT22;4248;48.196;10.924;2022-12-17T08:46:03;-7.70;60.60
8422;DHT22;4248;48.196;10.924;2022-12-17T08:48:47;-7.60;60.20
8422;DHT22;4248;48.196;10.924;2022-12-17T08:51:31;-7.50;59.30
8422;DHT22;4248;48.196;10.924;2022-12-17T08:54:15;-7.50;60.20
8422;DHT22;4248;48.196;10.924;2022-12-17T08:56:59;-7.60;60.40
8422;DHT22;4248;48.196;10.924;2022-12-17T08:59:43;-7.50;60.50
8422;DHT22;4248;48.196;10.924;2022-12-17T09:02:28;-7.40;59.60
8422;DHT22;4248;48.196;10.924;2022-12-17T09:05:12;-7.40;60.60
8422;DHT22;4248;48.196;10.924;2022-12-17T09:08:04;-7.30;60.80
8422;DHT22;4248;48.196;10.924;2022-12-17T09:11:03;-7.00;59.40
8422;DHT22;4248;48.196;10.924;2022-12-17T09:13:47;-7.00;60.40
8422;DHT22;4248;48.196;10.924;2022-12-17T09:16:31;-6.90;60.30
8422;DHT22;4248;48.196;10.924;2022-12-17T09:19:15;-6.70;60.20
8422;DHT22;4248;48.196;10.924;2022-12-17T09:21:59;-6.20;58.80
8422;DHT22;4248;48.196;10.924;2022-12-17T09:24:43;-6.20;59.60
8422;DHT22;4248;48.196;10.924;2022-12-17T09:27:27;-6.00;59.30
8422;DHT22;4248;48.196;10.924;2022-12-17T09:30:12;-5.90;59.30
8422;DHT22;4248;48.196;10.924;2022-12-17T09:32:56;-5.70;58.20
8422;DHT22;4248;48.196;10.924;2022-12-17T09:35:40;-5.50;59.10
8422;DHT22;4248;48.196;10.924;2022-12-17T09:38:24;-5.30;58.90
8422;DHT22;4248;48.196;10.924;2022-12-17T09:41:26;-5.20;58.90
8422;DHT22;4248;48.196;10.924;2022-12-17T09:44:19;-5.10;58.80
8422;DHT22;4248;48.196;10.924;2022-12-17T09:47:18;-4.90;58.70
8422;DHT22;4248;48.196;10.924;2022-12-17T09:50:12;-4.90;58.80
8422;DHT22;4248;48.196;10.924;2022-12-17T09:52:59;-4.90;57.80
8422;DHT22;4248;48.196;10.924;2022-12-17T09:55:51;-4.50;59.50
8422;DHT22;4248;48.196;10.924;2022-12-17T09:58:38;-4.20;58.80
8422;DHT22;4248;48.196;10.924;2022-12-17T10:01:32;-4.00;58.70
8422;DHT22;4248;48.196;10.924;2022-12-17T10:07:13;-3.50;58.20
8422;DHT22;4248;48.196;10.924;2022-12-17T10:10:05;-3.20;58.30
8422;DHT22;4248;48.196;10.924;2022-12-17T10:12:53;-3.00;58.20
8422;DHT22;4248;48.196;10.924;2022-12-17T10:15:41;-2.90;58.30
8422;DHT22;4248;48.196;10.924;2022-12-17T10:18:25;-2.90;58.20
8422;DHT22;4248;48.196;10.924;2022-12-17T10:21:10;-3.10;58.80
8422;DHT22;4248;48.196;10.924;2022-12-17T10:24:08;-2.90;59.20
8422;DHT22;4248;48.196;10.924;2022-12-17T10:27:18;-2.80;59.00
8422;DHT22;4248;48.196;10.924;2022-12-17T10:30:03;-2.70;59.30
8422;DHT22;4248;48.196;10.924;2022-12-17T10:32:56;-2.60;59.20
8422;DHT22;4248;48.196;10.924;2022-12-17T10:35:40;-2.70;59.20
8422;DHT22;4248;48.196;10.924;2022-12-17T10:38:29;-2.70;59.70
8422;DHT22;4248;48.196;10.924;2022-12-17T10:41:39;-2.80;60.60
8422;DHT22;4248;48.196;10.924;2022-12-17T10:44:33;-2.70;59.40
8422;DHT22;4248;48.196;10.924;2022-12-17T10:47:23;-2.50;59.00
8422;DHT22;4248;48.196;10.924;2022-12-17T10:50:16;-2.30;58.80
8422;DHT22;4248;48.196;10.924;2022-12-17T10:53:02;-2.20;58.50
8422;DHT22;4248;48.196;10.924;2022-12-17T10:55:48;-2.10;58.30
8422;DHT22;4248;48.196;10.924;2022-12-17T10:58:33;-1.90;58.30
8422;DHT22;4248;48.196;10.924;2022-12-17T11:01:26;-1.80;58.10
8422;DHT22;4248;48.196;10.924;2022-12-17T11:04:37;-1.70;58.30
8422;DHT22;4248;48.196;10.924;2022-12-17T11:07:34;-1.60;57.90
8422;DHT22;4248;48.196;10.924;2022-12-17T11:10:25;-1.60;57.70
8422;DHT22;4248;48.196;10.924;2022-12-17T11:13:36;-1.50;57.80
8422;DHT22;4248;48.196;10.924;2022-12-17T11:16:25;-1.40;57.80
8422;DHT22;4248;48.196;10.924;2022-12-17T11:22:00;-1.20;57.10
8422;DHT22;4248;48.196;10.924;2022-12-17T11:25:00;-1.20;58.40
8422;DHT22;4248;48.196;10.924;2022-12-17T11:27:52;-1.10;58.40
8422;DHT22;4248;48.196;10.924;2022-12-17T11:30:49;-1.30;57.20
8422;DHT22;4248;48.196;10.924;2022-12-17T11:33:43;-1.30;58.20
8422;DHT22;4248;48.196;10.924;2022-12-17T11:36:58;-1.40;58.30
8422;DHT22;4248;48.196;10.924;2022-12-17T11:43:06;-1.40;58.00
8422;DHT22;4248;48.196;10.924;2022-12-17T11:46:16;-1.30;59.00
8422;DHT22;4248;48.196;10.924;2022-12-17T11:52:10;-1.30;58.90
8422;DHT22;4248;48.196;10.924;2022-12-17T12:04:33;-1.10;58.60
8422;DHT22;4248;48.196;10.924;2022-12-17T12:07:30;-1.10;58.50
8422;DHT22;4248;48.196;10.924;2022-12-17T12:10:42;-1.10;58.30
8422;DHT22;4248;48.196;10.924;2022-12-17T12:13:50;-1.40;59.00
8422;DHT22;4248;48.196;10.924;2022-12-17T12:16:49;-1.40;59.20
8422;DHT22;4248;48.196;10.924;2022-12-17T12:26:11;-1.50;59.40
8422;DHT22;4248;48.196;10.924;2022-12-17T12:32:01;-1.50;58.80
8422;DHT22;4248;48.196;10.924;2022-12-17T12:34:48;-1.60;58.80
8422;DHT22;4248;48.196;10.924;2022-12-17T12:37:33;-1.70;59.20
8422;DHT22;4248;48.196;10.924;2022-12-17T12:52:01;-1.60;59.00
8422;DHT22;4248;48.196;10.924;2022-12-17T13:06:42;-1.60;58.80
8422;DHT22;4248;48.196;10.924;2022-12-17T13:11:44;-1.60;58.70
8422;DHT22;4248;48.196;10.924;2022-12-17T13:14:32;-1.50;58.90
8422;DHT22;4248;48.196;10.924;2022-12-17T13:17:06;-1.50;58.80
8422;DHT22;4248;48.196;10.924;2022-12-17T13:19:40;-1.50;58.70
8422;DHT22;4248;48.196;10.924;2022-12-17T13:24:39;-1.50;58.80
8422;DHT22;4248;48.196;10.924;2022-12-17T13:41:10;-2.00;59.90
8422;DHT22;4248;48.196;10.924;2022-12-17T13:43:56;-2.10;60.00
8422;DHT22;4248;48.196;10.924;2022-12-17T13:46:42;-2.30;60.30
8422;DHT22;4248;48.196;10.924;2022-12-17T13:49:22;-2.30;60.60
8422;DHT22;4248;48.196;10.924;2022-12-17T13:52:00;-2.40;60.80
8422;DHT22;4248;48.196;10.924;2022-12-17T13:54:26;-2.40;62.10
8422;DHT22;4248;48.196;10.924;2022-12-17T13:56:52;-2.40;60.90
8422;DHT22;4248;48.196;10.924;2022-12-17T13:59:23;-2.40;60.50
8422;DHT22;4248;48.196;10.924;2022-12-17T14:01:52;-2.30;60.50
8422;DHT22;4248;48.196;10.924;2022-12-17T14:04:26;-2.30;60.20
8422;DHT22;4248;48.196;10.924;2022-12-17T14:06:55;-2.40;60.30
8422;DHT22;4248;48.196;10.924;2022-12-17T14:09:25;-2.40;60.30
8422;DHT22;4248;48.196;10.924;2022-12-17T14:11:52;-2.40;60.00
8422;DHT22;4248;48.196;10.924;2022-12-17T14:14:39;-2.40;60.00
8422;DHT22;4248;48.196;10.924;2022-12-17T14:17:05;-2.30;59.90
8422;DHT22;4248;48.196;10.924;2022-12-17T14:19:39;-2.30;59.70
8422;DHT22;4248;48.196;10.924;2022-12-17T14:22:04;-2.30;59.70
8422;DHT22;4248;48.196;10.924;2022-12-17T14:24:30;-2.20;59.60
8422;DHT22;4248;48.196;10.924;2022-12-17T14:26:58;-2.40;59.40
8422;DHT22;4248;48.196;10.924;2022-12-17T14:29:27;-2.40;59.60
8422;DHT22;4248;48.196;10.924;2022-12-17T14:31:58;-2.60;59.60
8422;DHT22;4248;48.196;10.924;2022-12-17T14:34:24;-2.70;59.80
8422;DHT22;4248;48.196;10.924;2022-12-17T14:36:58;-2.70;59.80
8422;DHT22;4248;48.196;10.924;2022-12-17T14:39:31;-2.80;59.90
8422;DHT22;4248;48.196;10.924;2022-12-17T14:42:07;-2.90;59.80
8422;DHT22;4248;48.196;10.924;2022-12-17T14:44:52;-3.00;59.90
8422;DHT22;4248;48.196;10.924;2022-12-17T14:54:57;-3.30;60.50
8422;DHT22;4248;48.196;10.924;2022-12-17T14:57:22;-3.50;60.60
8422;DHT22;4248;48.196;10.924;2022-12-17T14:59:48;-3.60;61.00
8422;DHT22;4248;48.196;10.924;2022-12-17T15:02:22;-3.70;61.20
8422;DHT22;4248;48.196;10.924;2022-12-17T15:04:49;-3.70;61.10
8422;DHT22;4248;48.196;10.924;2022-12-17T15:07:24;-3.70;61.00
8422;DHT22;4248;48.196;10.924;2022-12-17T15:09:51;-3.80;61.00
8422;DHT22;4248;48.196;10.924;2022-12-17T15:12:18;-3.90;61.10
8422;DHT22;4248;48.196;10.924;2022-12-17T15:14:44;-4.00;61.20
8422;DHT22;4248;48.196;10.924;2022-12-17T15:17:11;-4.10;61.20
8422;DHT22;4248;48.196;10.924;2022-12-17T15:19:37;-4.30;61.20
8422;DHT22;4248;48.196;10.924;2022-12-17T15:22:04;-4.40;61.50
8422;DHT22;4248;48.196;10.924;2022-12-17T15:24:29;-4.50;61.40
8422;DHT22;4248;48.196;10.924;2022-12-17T15:26:55;-4.60;61.60
8422;DHT22;4248;48.196;10.924;2022-12-17T15:29:21;-4.80;61.70
8422;DHT22;4248;48.196;10.924;2022-12-17T15:31:49;-4.90;61.90
8422;DHT22;4248;48.196;10.924;2022-12-17T15:34:14;-5.10;61.80
8422;DHT22;4248;48.196;10.924;2022-12-17T15:36:40;-5.20;61.90
8422;DHT22;4248;48.196;10.924;2022-12-17T15:39:06;-5.20;61.70
8422;DHT22;4248;48.196;10.924;2022-12-17T15:41:32;-5.40;60.30
8422;DHT22;4248;48.196;10.924;2022-12-17T15:44:17;-5.40;61.40
8422;DHT22;4248;48.196;10.924;2022-12-17T15:46:42;-5.50;61.20
8422;DHT22;4248;48.196;10.924;2022-12-17T15:49:08;-5.50;61.40
8422;DHT22;4248;48.196;10.924;2022-12-17T15:51:33;-5.60;60.30
8422;DHT22;4248;48.196;10.924;2022-12-17T15:53:59;-5.60;61.20
8422;DHT22;4248;48.196;10.924;2022-12-17T15:56:26;-5.60;61.30
8422;DHT22;4248;48.196;10.924;2022-12-17T15:58:55;-5.50;61.00
8422;DHT22;4248;48.196;10.924;2022-12-17T16:01:21;-5.20;60.30
8422;DHT22;4248;48.196;10.924;2022-12-17T16:03:46;-5.00;60.00
8422;DHT22;4248;48.196;10.924;2022-12-17T16:06:12;-4.80;59.20
8422;DHT22;4248;48.196;10.924;2022-12-17T16:08:38;-4.60;58.80
8422;DHT22;4248;48.196;10.924;2022-12-17T16:11:08;-4.50;58.50
8422;DHT22;4248;48.196;10.924;2022-12-17T16:13:35;-4.30;58.30
8422;DHT22;4248;48.196;10.924;2022-12-17T16:16:01;-4.10;57.80
8422;DHT22;4248;48.196;10.924;2022-12-17T16:18:27;-4.00;57.70
8422;DHT22;4248;48.196;10.924;2022-12-17T16:20:52;-3.60;56.40
8422;DHT22;4248;48.196;10.924;2022-12-17T16:23:19;-3.60;57.30
8422;DHT22;4248;48.196;10.924;2022-12-17T16:25:54;-3.40;57.10
8422;DHT22;4248;48.196;10.924;2022-12-17T16:28:21;-3.20;57.30
8422;DHT22;4248;48.196;10.924;2022-12-17T16:31:00;-3.20;56.80
8422;DHT22;4248;48.196;10.924;2022-12-17T16:33:26;-3.20;57.90
8422;DHT22;4248;48.196;10.924;2022-12-17T16:35:52;-3.20;58.50
8422;DHT22;4248;48.196;10.924;2022-12-17T16:38:18;-3.20;59.10
8422;DHT22;4248;48.196;10.924;2022-12-17T16:40:45;-3.10;58.80
8422;DHT22;4248;48.196;10.924;2022-12-17T16:43:11;-3.10;59.80
8422;DHT22;4248;48.196;10.924;2022-12-17T16:45:46;-3.00;59.90
8422;DHT22;4248;48.196;10.924;2022-12-17T16:48:11;-3.00;59.80
8422;DHT22;4248;48.196;10.924;2022-12-17T16:50:37;-3.00;60.30
8422;DHT22;4248;48.196;10.924;2022-12-17T16:53:03;-3.00;60.00
8422;DHT22;4248;48.196;10.924;2022-12-17T16:55:28;-2.90;60.20
8422;DHT22;4248;48.196;10.924;2022-12-17T16:57:54;-2.90;60.30
8422;DHT22;4248;48.196;10.924;2022-12-17T17:00:19;-2.80;60.40
8422;DHT22;4248;48.196;10.924;2022-12-17T17:02:45;-2.80;60.50
8422;DHT22;4248;48.196;10.924;2022-12-17T17:05:11;-2.60;60.30
8422;DHT22;4248;48.196;10.924;2022-12-17T17:07:37;-2.60;60.30
8422;DHT22;4248;48.196;10.924;2022-12-17T17:10:03;-2.60;60.30
8422;DHT22;4248;48.196;10.924;2022-12-17T17:12:28;-2.50;60.20
8422;DHT22;4248;48.196;10.924;2022-12-17T17:14:54;-2.40;60.50
8422;DHT22;4248;48.196;10.924;2022-12-17T17:17:20;-2.50;60.50
8422;DHT22;4248;48.196;10.924;2022-12-17T17:19:46;-2.40;60.30
8422;DHT22;4248;48.196;10.924;2022-12-17T17:22:11;-2.40;60.30
8422;DHT22;4248;48.196;10.924;2022-12-17T17:24:37;-2.30;60.30
8422;DHT22;4248;48.196;10.924;2022-12-17T17:27:02;-2.20;60.00
8422;DHT22;4248;48.196;10.924;2022-12-17T17:29:28;-2.10;59.90
8422;DHT22;4248;48.196;10.924;2022-12-17T17:31:54;-1.90;60.00
8422;DHT22;4248;48.196;10.924;2022-12-17T17:34:19;-2.00;59.90
8422;DHT22;4248;48.196;10.924;2022-12-17T17:36:45;-2.00;59.90
8422;DHT22;4248;48.196;10.924;2022-12-17T17:39:14;-2.00;60.00
8422;DHT22;4248;48.196;10.924;2022-12-17T17:41:39;-2.00;60.20
8422;DHT22;4248;48.196;10.924;2022-12-17T17:44:10;-2.10;60.40
8422;DHT22;4248;48.196;10.924;2022-12-17T17:46:36;-2.10;60.60
8422;DHT22;4248;48.196;10.924;2022-12-17T17:49:04;-2.10;60.60
8422;DHT22;4248;48.196;10.924;2022-12-17T17:51:32;-2.10;60.60
8422;DHT22;4248;48.196;10.924;2022-12-17T17:54:00;-2.20;60.90
8422;DHT22;4248;48.196;10.924;2022-12-17T17:56:28;-2.10;60.50
8422;DHT22;4248;48.196;10.924;2022-12-17T17:58:58;-2.10;60.50
8422;DHT22;4248;48.196;10.924;2022-12-17T18:01:26;-2.10;60.70
8422;DHT22;4248;48.196;10.924;2022-12-17T18:03:54;-2.20;60.90
8422;DHT22;4248;48.196;10.924;2022-12-17T18:06:20;-2.20;60.60
8422;DHT22;4248;48.196;10.924;2022-12-17T18:08:46;-2.20;60.70
8422;DHT22;4248;48.196;10.924;2022-12-17T18:11:15;-2.10;60.50
8422;DHT22;4248;48.196;10.924;2022-12-17T18:13:41;-2.10;60.40
8422;DHT22;4248;48.196;10.924;2022-12-17T18:16:21;-2.00;60.40
8422;DHT22;4248;48.196;10.924;2022-12-17T18:18:47;-2.00;60.40
8422;DHT22;4248;48.196;10.924;2022-12-17T18:21:18;-2.10;60.60
8422;DHT22;4248;48.196;10.924;2022-12-17T18:23:45;-2.10;60.90
8422;DHT22;4248;48.196;10.924;2022-12-17T18:26:19;-2.10;61.10
8422;DHT22;4248;48.196;10.924;2022-12-17T18:28:46;-2.00;61.10
8422;DHT22;4248;48.196;10.924;2022-12-17T18:33:41;-2.00;61.40
8422;DHT22;4248;48.196;10.924;2022-12-17T18:36:12;-2.10;61.60
8422;DHT22;4248;48.196;10.924;2022-12-17T18:38:39;-1.90;61.50
8422;DHT22;4248;48.196;10.924;2022-12-17T18:41:11;-2.00;61.60
8422;DHT22;4248;48.196;10.924;2022-12-17T18:43:56;-2.00;61.60
8422;DHT22;4248;48.196;10.924;2022-12-17T18:46:23;-2.00;61.90
8422;DHT22;4248;48.196;10.924;2022-12-17T18:48:48;-2.00;62.10
8422;DHT22;4248;48.196;10.924;2022-12-17T18:51:16;-2.00;62.10
8422;DHT22;4248;48.196;10.924;2022-12-17T18:53:41;-2.00;62.10